Rechercher aéroport 
image banner adimage banner adimage banner ad
image banner ad

CL25 - 7R Ranch

Situé à Cuyama, United States

ICAO - CL25, IATA -

Données fournies par Airmate  

Information générale

Coordonnées: N34°56'8" W119°27'6"
Élévation : 3176 feet MSL.
Variation magnétique : 14° East
Voir autres Aéroports à California

Données opérationnelles

Special qualification required
Heure actuelle UTC:
Heure actuelle locale:
Météo à : KBFL - Meadows Field ( 66 km )
METAR: KBFL 210254Z 32004KT 6SM HZ FU FEW035 25/12 A2996 RMK AO2 SLP139 T02500122 53018
TAF: KBFL 202320Z 2100/2124 VRB05KT 6SM HZ FU SKC
Voir NOTAMs / SUP AIP / TFR affectant cet aéroport [VIEW]
Fréquences de communication: [VIEW]

Pistes:

Identifiant RWYQFULongueur (ft)Largeur (ft)SurfaceLDA (ft)
11235040GRASS
29235040GRASS

Coordonnées de l'aéroport

Adresse: Cuyama United States

Vue satellite de CL25